Time;durP1;ratioP1;P1;durP2;ratioP2;P2;SDS_P1;SDS_P2;PMS_P1;PMS_P2;Temp;Humidity;BMP_temperature;BMP_pressure;BME280_temperature;BME280_humidity;BME280_pressure;Samples;Min_cycle;Max_cycle;Signal;HPM_P1;HPM_P2
2022/10/20 00:02:23;;;;;;;2.33;1.73;;;5.20;99.90;;;;;;5073265;28;20236;-70
2022/10/20 00:04:50;;;;;;;3.43;2.07;;;5.20;99.90;;;;;;5073054;28;20209;-68
2022/10/20 00:07:16;;;;;;;1.80;1.50;;;5.10;99.90;;;;;;5083924;28;20211;-67
2022/10/20 00:09:43;;;;;;;1.90;1.70;;;5.10;99.90;;;;;;5089774;28;20204;-68
2022/10/20 00:12:11;;;;;;;2.83;1.67;;;5.00;99.90;;;;;;5092927;28;20204;-67
2022/10/20 00:14:38;;;;;;;1.90;1.70;;;4.90;99.90;;;;;;5093214;28;20208;-68
2022/10/20 00:17:05;;;;;;;1.87;1.67;;;4.90;99.90;;;;;;5092908;28;20230;-69
2022/10/20 00:19:32;;;;;;;3.07;1.60;;;4.80;99.90;;;;;;5093277;28;20298;-68
2022/10/20 00:22:00;;;;;;;2.63;1.73;;;4.80;99.90;;;;;;5092913;28;20246;-67
2022/10/20 00:24:26;;;;;;;4.23;1.60;;;4.80;99.90;;;;;;5090512;28;20211;-68
2022/10/20 00:26:53;;;;;;;2.33;1.43;;;4.80;99.90;;;;;;5092722;28;20204;-68
2022/10/20 00:29:21;;;;;;;2.27;1.70;;;4.70;99.90;;;;;;5092894;28;20212;-68
2022/10/20 00:31:48;;;;;;;2.43;1.70;;;4.70;99.90;;;;;;5092600;28;20204;-68
2022/10/20 00:34:15;;;;;;;3.73;1.97;;;4.60;99.90;;;;;;5092724;28;20218;-68
2022/10/20 00:36:41;;;;;;;2.03;1.80;;;4.60;99.90;;;;;;5092649;28;20211;-68
2022/10/20 00:39:08;;;;;;;2.30;1.80;;;4.50;99.90;;;;;;5090655;28;20208;-69
2022/10/20 00:41:35;;;;;;;2.23;1.50;;;4.50;99.90;;;;;;5092494;28;20234;-68
2022/10/20 00:44:22;;;;;;;2.47;1.50;;;4.50;99.90;;;;;;5092599;28;20223;-68
2022/10/20 00:46:51;;;;;;;1.60;1.37;;;4.50;99.90;;;;;;5092222;28;20214;-69
2022/10/20 00:49:21;;;;;;;2.57;1.90;;;4.50;99.90;;;;;;5092718;28;20204;-67
2022/10/20 00:51:49;;;;;;;2.70;1.63;;;4.50;99.90;;;;;;5092459;28;20188;-68
2022/10/20 00:54:20;;;;;;;3.13;1.60;;;4.40;99.90;;;;;;5088138;28;20322;-69
2022/10/20 00:56:49;;;;;;;1.80;1.60;;;4.40;99.90;;;;;;5092706;28;20550;-67
2022/10/20 00:59:19;;;;;;;1.60;1.50;;;4.30;99.90;;;;;;5092547;28;20666;-68
2022/10/20 01:01:46;;;;;;;1.63;1.53;;;4.30;99.90;;;;;;5091923;28;20692;-68
2022/10/20 01:04:16;;;;;;;1.60;1.50;;;4.30;99.90;;;;;;5092840;28;20550;-68
2022/10/20 01:06:43;;;;;;;2.23;1.53;;;4.30;99.90;;;;;;5073990;28;20199;-67
2022/10/20 01:09:10;;;;;;;2.53;1.60;;;4.30;99.90;;;;;;5088139;28;20200;-67
2022/10/20 01:11:44;;;;;;;1.93;1.50;;;4.40;99.90;;;;;;5092494;28;20654;-68
2022/10/20 01:14:23;;;;;;;4.00;1.50;;;4.40;99.90;;;;;;5092554;28;20697;-68
2022/10/20 01:16:57;;;;;;;3.10;1.67;;;4.40;99.90;;;;;;5092524;28;20199;-68
2022/10/20 01:19:46;;;;;;;2.70;1.60;;;4.40;99.90;;;;;;5092238;28;20192;-68
2022/10/20 01:22:41;;;;;;;3.23;1.70;;;4.40;99.90;;;;;;5092141;28;20212;-68
2022/10/20 01:25:18;;;;;;;2.73;1.70;;;4.40;99.90;;;;;;5089204;28;20204;-68
2022/10/20 01:27:48;;;;;;;1.97;1.67;;;4.40;99.90;;;;;;5091409;28;20191;-67
2022/10/20 01:30:18;;;;;;;2.93;2.03;;;4.40;99.90;;;;;;5079697;28;20190;-68
2022/10/20 01:33:05;;;;;;;3.93;1.60;;;4.40;99.90;;;;;;5071811;28;20217;-68
2022/10/20 01:35:40;;;;;;;5.57;2.00;;;4.40;99.90;;;;;;5071688;28;20189;-68
2022/10/20 01:38:15;;;;;;;6.47;2.60;;;4.40;99.90;;;;;;5070014;28;20188;-68
2022/10/20 01:40:48;;;;;;;3.43;1.93;;;4.40;99.90;;;;;;5089001;28;20208;-67
2022/10/20 01:43:20;;;;;;;4.67;2.13;;;4.40;99.90;;;;;;5092103;28;20192;-67
2022/10/20 01:45:50;;;;;;;1.90;1.70;;;4.40;99.90;;;;;;5092066;28;20199;-67
2022/10/20 01:48:20;;;;;;;6.10;1.50;;;4.40;99.90;;;;;;5088965;28;20196;-68
2022/10/20 01:50:48;;;;;;;3.20;1.40;;;4.40;99.90;;;;;;5091786;28;20219;-68
2022/10/20 01:53:15;;;;;;;1.57;1.47;;;4.30;99.90;;;;;;5091881;28;20565;-67
2022/10/20 01:55:42;;;;;;;1.97;1.40;;;4.30;99.90;;;;;;5091844;28;20203;-69
2022/10/20 01:58:24;;;;;;;3.47;1.47;;;4.30;99.90;;;;;;5090563;28;20204;-68
2022/10/20 02:00:52;;;;;;;3.37;1.70;;;4.30;99.90;;;;;;5091425;28;20666;-68
2022/10/20 02:03:34;;;;;;;1.60;1.50;;;4.30;99.90;;;;;;5091429;28;20731;-69
2022/10/20 02:06:12;;;;;;;1.57;1.47;;;4.30;99.90;;;;;;5091699;28;20184;-67
2022/10/20 02:08:45;;;;;;;3.27;1.60;;;4.40;99.90;;;;;;5091750;28;20200;-67
2022/10/20 02:11:20;;;;;;;2.77;1.57;;;4.30;99.90;;;;;;5091896;28;20188;-69
2022/10/20 02:13:51;;;;;;;1.83;1.53;;;4.40;99.90;;;;;;5085874;28;20785;-67
2022/10/20 02:16:22;;;;;;;3.40;1.70;;;4.40;99.90;;;;;;5092220;28;20195;-67
2022/10/20 02:18:49;;;;;;;2.87;1.60;;;4.30;99.90;;;;;;5091842;28;20189;-67
2022/10/20 02:21:16;;;;;;;3.87;1.73;;;4.30;99.90;;;;;;5091823;28;20236;-68
2022/10/20 02:23:47;;;;;;;2.63;1.70;;;4.30;99.90;;;;;;5091467;28;20211;-68
2022/10/20 02:26:17;;;;;;;2.30;1.80;;;4.30;99.90;;;;;;5091585;28;20562;-67
2022/10/20 02:28:49;;;;;;;2.47;1.70;;;4.30;99.90;;;;;;5087486;28;20192;-68
2022/10/20 02:31:17;;;;;;;2.17;1.53;;;4.20;99.90;;;;;;5091528;28;20200;-68
2022/10/20 02:33:45;;;;;;;1.97;1.60;;;4.20;99.90;;;;;;5091281;28;20204;-67
2022/10/20 02:36:16;;;;;;;4.00;1.70;;;4.30;99.90;;;;;;5091244;28;20658;-69
2022/10/20 02:38:43;;;;;;;1.87;1.60;;;4.30;99.90;;;;;;5091155;28;20234;-68
2022/10/20 02:41:10;;;;;;;2.40;1.97;;;4.30;99.90;;;;;;5094014;28;20314;-67
2022/10/20 02:43:37;;;;;;;1.70;1.60;;;4.30;99.90;;;;;;5093291;28;20208;-68
2022/10/20 02:46:05;;;;;;;2.73;1.60;;;4.30;99.90;;;;;;5085585;28;20200;-68
2022/10/20 02:48:32;;;;;;;3.20;1.83;;;4.20;99.90;;;;;;5094916;28;20219;-68
2022/10/20 02:50:59;;;;;;;3.23;2.10;;;4.30;99.90;;;;;;5095237;28;20200;-67
2022/10/20 02:53:26;;;;;;;3.10;1.90;;;4.30;99.90;;;;;;5094662;28;20210;-68
2022/10/20 02:55:52;;;;;;;2.67;1.97;;;4.30;99.90;;;;;;5094851;28;20203;-67
2022/10/20 02:58:19;;;;;;;2.77;1.90;;;4.40;99.90;;;;;;5094853;28;20210;-67
2022/10/20 03:00:46;;;;;;;3.23;1.70;;;4.30;99.90;;;;;;5086031;28;20216;-68
2022/10/20 03:03:14;;;;;;;4.20;1.97;;;4.30;99.90;;;;;;5093935;28;20232;-68
2022/10/20 03:05:43;;;;;;;3.63;1.90;;;4.30;99.90;;;;;;5094481;28;20685;-67
2022/10/20 03:08:10;;;;;;;3.17;1.80;;;4.30;99.90;;;;;;5094388;28;20210;-69
2022/10/20 03:10:37;;;;;;;2.60;1.70;;;4.10;99.90;;;;;;5094568;28;20206;-66
2022/10/20 03:13:05;;;;;;;2.77;1.80;;;4.10;99.90;;;;;;5085821;28;20282;-68
2022/10/20 03:15:32;;;;;;;2.57;1.57;;;4.10;99.90;;;;;;5089617;28;20578;-67
2022/10/20 03:17:59;;;;;;;2.13;1.90;;;4.10;99.90;;;;;;5094381;28;20215;-67
2022/10/20 03:20:27;;;;;;;2.60;1.73;;;4.10;99.90;;;;;;5093992;28;20690;-69
2022/10/20 03:22:53;;;;;;;2.50;1.80;;;4.00;99.90;;;;;;5094046;28;20246;-67
2022/10/20 03:25:21;;;;;;;2.97;1.80;;;4.00;99.90;;;;;;5094485;28;20561;-68
2022/10/20 03:27:47;;;;;;;2.60;1.70;;;4.00;99.90;;;;;;5094163;28;20219;-68
2022/10/20 03:30:14;;;;;;;3.10;1.70;;;4.00;99.90;;;;;;5090671;28;20200;-68
2022/10/20 03:32:41;;;;;;;2.80;1.80;;;4.00;99.90;;;;;;5092085;28;20211;-69
2022/10/20 03:35:08;;;;;;;4.17;2.00;;;4.00;99.90;;;;;;5093136;28;20580;-68
2022/10/20 03:37:36;;;;;;;3.13;1.70;;;4.00;99.90;;;;;;5092711;28;20207;-69
2022/10/20 03:40:04;;;;;;;2.10;1.67;;;4.00;99.90;;;;;;5093954;28;20208;-69
2022/10/20 03:42:30;;;;;;;2.00;1.60;;;4.00;99.90;;;;;;5093435;28;20224;-68
2022/10/20 03:44:57;;;;;;;3.27;1.70;;;4.00;99.90;;;;;;5085448;28;20227;-68
2022/10/20 03:47:24;;;;;;;1.83;1.67;;;4.00;99.90;;;;;;5072808;28;20220;-69
2022/10/20 03:49:51;;;;;;;4.73;1.80;;;4.00;99.90;;;;;;5082310;28;20212;-68
2022/10/20 03:52:18;;;;;;;3.63;1.93;;;4.00;99.90;;;;;;5093206;28;20211;-68
2022/10/20 03:54:46;;;;;;;2.17;1.90;;;4.00;99.90;;;;;;5087007;28;20205;-70
2022/10/20 03:57:12;;;;;;;2.77;1.87;;;4.00;99.90;;;;;;5073499;28;20207;-69
2022/10/20 03:59:39;;;;;;;2.83;1.80;;;4.00;99.90;;;;;;5073599;28;20662;-69
2022/10/20 04:02:06;;;;;;;4.00;1.70;;;4.10;99.90;;;;;;5073329;28;20251;-68
2022/10/20 04:04:33;;;;;;;1.70;1.60;;;4.10;99.90;;;;;;5072419;28;20193;-69
2022/10/20 04:07:00;;;;;;;4.97;1.80;;;4.10;99.90;;;;;;5073686;28;20208;-68
2022/10/20 04:09:26;;;;;;;3.40;2.00;;;4.20;99.90;;;;;;5071947;28;20197;-68
2022/10/20 04:11:55;;;;;;;3.23;1.80;;;4.20;99.90;;;;;;5071828;28;20197;-69
2022/10/20 04:14:21;;;;;;;4.40;1.80;;;4.10;99.90;;;;;;5071541;28;20566;-67
2022/10/20 04:16:48;;;;;;;2.67;1.70;;;4.00;99.90;;;;;;5071480;28;20302;-68
2022/10/20 04:19:15;;;;;;;2.83;1.80;;;4.00;99.90;;;;;;5071626;28;20216;-67
2022/10/20 04:21:42;;;;;;;2.50;1.87;;;4.10;99.90;;;;;;5071020;28;20221;-68
2022/10/20 04:24:08;;;;;;;3.00;1.73;;;4.00;99.90;;;;;;5086698;28;20204;-67
2022/10/20 04:26:35;;;;;;;2.13;1.80;;;4.10;99.90;;;;;;5080755;28;20197;-66
2022/10/20 04:29:03;;;;;;;2.80;1.50;;;4.00;99.90;;;;;;5083961;28;20220;-67
2022/10/20 04:31:30;;;;;;;2.10;1.90;;;4.00;99.90;;;;;;5088393;28;20229;-65
2022/10/20 04:33:57;;;;;;;1.60;1.50;;;4.10;99.90;;;;;;5075207;28;20201;-65
2022/10/20 04:36:23;;;;;;;2.43;1.57;;;4.00;99.90;;;;;;5071535;28;20211;-66
2022/10/20 04:38:50;;;;;;;2.17;1.80;;;4.00;99.90;;;;;;5072007;28;20211;-66
2022/10/20 04:41:17;;;;;;;2.60;1.70;;;4.10;99.90;;;;;;5079663;28;20220;-66
2022/10/20 04:43:44;;;;;;;3.50;1.60;;;4.10;99.90;;;;;;5071803;28;20212;-66
2022/10/20 04:46:12;;;;;;;4.80;1.70;;;4.10;99.90;;;;;;5071252;28;20200;-66
2022/10/20 04:48:42;;;;;;;2.07;1.67;;;4.10;99.90;;;;;;5071260;28;20219;-68
2022/10/20 04:51:11;;;;;;;4.27;1.90;;;4.10;99.90;;;;;;5075171;28;20204;-66
2022/10/20 04:53:38;;;;;;;2.73;1.53;;;4.10;99.90;;;;;;5091123;28;20204;-68
2022/10/20 04:56:08;;;;;;;3.60;1.60;;;4.20;99.90;;;;;;5082648;28;20223;-66
2022/10/20 04:58:35;;;;;;;2.57;1.60;;;4.20;99.90;;;;;;5071342;28;20210;-66
2022/10/20 05:01:03;;;;;;;1.70;1.47;;;4.10;99.90;;;;;;5071753;28;20207;-67
2022/10/20 05:03:32;;;;;;;2.43;1.67;;;4.10;99.90;;;;;;5072505;28;20244;-66
2022/10/20 05:06:09;;;;;;;2.87;1.47;;;4.10;99.90;;;;;;5071573;28;20208;-68
2022/10/20 05:08:36;;;;;;;2.20;1.60;;;4.10;99.90;;;;;;5071858;28;20196;-68
2022/10/20 05:11:03;;;;;;;3.17;1.80;;;4.10;99.90;;;;;;5083018;28;20208;-66
2022/10/20 05:13:30;;;;;;;2.30;1.50;;;4.20;99.90;;;;;;5091335;28;20210;-67
2022/10/20 05:15:57;;;;;;;2.33;1.70;;;4.20;99.90;;;;;;5074909;28;20578;-66
2022/10/20 05:18:23;;;;;;;3.03;1.97;;;4.10;99.90;;;;;;5071532;28;20216;-66
2022/10/20 05:20:51;;;;;;;3.23;1.93;;;4.00;99.90;;;;;;5071800;28;20216;-67
2022/10/20 05:23:18;;;;;;;2.17;1.93;;;4.10;99.90;;;;;;5071552;28;20567;-67
2022/10/20 05:25:45;;;;;;;2.27;1.70;;;4.10;99.90;;;;;;5089480;28;20208;-67
2022/10/20 05:28:12;;;;;;;4.07;2.00;;;4.10;99.90;;;;;;5091721;28;20230;-67
2022/10/20 05:30:39;;;;;;;2.73;1.93;;;4.10;99.90;;;;;;5091629;28;20212;-67
2022/10/20 05:33:06;;;;;;;3.07;1.90;;;4.20;99.90;;;;;;5089975;28;20551;-68
2022/10/20 05:35:33;;;;;;;3.00;1.80;;;4.00;99.90;;;;;;5088323;28;20214;-68
2022/10/20 05:38:01;;;;;;;2.10;1.70;;;4.00;99.90;;;;;;5091918;28;20204;-67
2022/10/20 05:40:27;;;;;;;3.93;1.90;;;4.10;99.90;;;;;;5082959;28;20200;-69
2022/10/20 05:42:54;;;;;;;3.13;2.00;;;4.00;99.90;;;;;;5070463;28;20738;-70
2022/10/20 05:45:21;;;;;;;3.03;1.97;;;4.00;99.90;;;;;;5070266;28;20197;-68
2022/10/20 05:47:48;;;;;;;2.50;2.00;;;4.00;99.90;;;;;;5071578;28;20562;-69
2022/10/20 05:50:14;;;;;;;2.47;1.97;;;3.90;99.90;;;;;;5083639;28;20572;-70
2022/10/20 05:52:41;;;;;;;1.70;1.60;;;3.90;99.90;;;;;;5092049;28;20200;-70
2022/10/20 05:55:10;;;;;;;2.03;1.83;;;3.80;99.90;;;;;;5076340;28;20200;-69
2022/10/20 05:57:37;;;;;;;2.80;1.97;;;3.80;99.90;;;;;;5070853;28;20196;-68
2022/10/20 06:00:05;;;;;;;2.60;1.80;;;3.80;99.90;;;;;;5071489;28;20658;-70
2022/10/20 06:02:32;;;;;;;3.53;2.53;;;3.80;99.90;;;;;;5071301;28;20641;-68
2022/10/20 06:04:58;;;;;;;3.93;2.43;;;3.80;99.90;;;;;;5071618;28;20205;-68
2022/10/20 06:07:25;;;;;;;1.83;1.73;;;3.70;99.90;;;;;;5071394;28;20573;-68
2022/10/20 06:09:52;;;;;;;3.00;1.93;;;3.80;99.90;;;;;;5083864;28;20200;-68
2022/10/20 06:12:20;;;;;;;2.83;2.10;;;3.80;99.90;;;;;;5091556;28;20203;-70
2022/10/20 06:14:47;;;;;;;2.47;2.10;;;3.80;99.90;;;;;;5090898;28;20204;-68
2022/10/20 06:17:14;;;;;;;2.27;2.10;;;3.80;99.90;;;;;;5095070;28;20204;-68
2022/10/20 06:19:40;;;;;;;2.70;1.93;;;3.80;99.90;;;;;;5094027;28;20700;-68
2022/10/20 06:22:07;;;;;;;2.50;2.10;;;3.80;99.90;;;;;;5094034;28;20306;-69
2022/10/20 06:24:34;;;;;;;2.00;1.90;;;3.80;99.90;;;;;;5095206;28;20208;-70
2022/10/20 06:27:01;;;;;;;2.13;1.90;;;3.80;99.90;;;;;;5094868;28;20208;-69
2022/10/20 06:29:29;;;;;;;2.20;2.00;;;3.80;99.90;;;;;;5093511;28;20207;-70
2022/10/20 06:31:56;;;;;;;3.23;2.13;;;3.80;99.90;;;;;;5086797;28;20673;-68
2022/10/20 06:34:25;;;;;;;4.83;2.30;;;3.80;99.90;;;;;;5095346;28;20249;-68
2022/10/20 06:36:52;;;;;;;3.60;2.33;;;3.90;99.90;;;;;;5095469;28;20557;-68
2022/10/20 06:39:21;;;;;;;3.87;2.30;;;3.90;99.90;;;;;;5094982;28;20203;-69
2022/10/20 06:41:49;;;;;;;3.00;2.33;;;3.90;99.90;;;;;;5094999;28;20208;-68
2022/10/20 06:44:16;;;;;;;2.70;2.03;;;4.00;99.90;;;;;;5095181;28;20212;-70
2022/10/20 06:46:44;;;;;;;3.37;2.30;;;4.00;99.90;;;;;;5094087;28;20672;-69
2022/10/20 06:49:12;;;;;;;4.67;2.27;;;4.10;99.90;;;;;;5094444;28;20204;-69
2022/10/20 06:51:39;;;;;;;3.17;2.30;;;4.10;99.90;;;;;;5094321;28;20294;-69
2022/10/20 06:54:06;;;;;;;2.50;2.27;;;4.10;99.90;;;;;;5094332;28;20203;-69
2022/10/20 06:56:35;;;;;;;2.83;1.83;;;4.00;99.90;;;;;;5091863;28;20211;-69
2022/10/20 06:59:03;;;;;;;4.20;2.07;;;4.00;99.90;;;;;;5094471;28;20208;-68
2022/10/20 07:01:31;;;;;;;2.97;2.27;;;4.00;99.90;;;;;;5094655;28;20546;-68
2022/10/20 07:04:01;;;;;;;3.07;2.20;;;4.10;99.90;;;;;;5094015;28;20239;-71
2022/10/20 07:06:30;;;;;;;2.90;2.40;;;4.10;99.90;;;;;;5094392;28;20220;-68
2022/10/20 07:08:57;;;;;;;2.93;2.20;;;4.00;99.90;;;;;;5090511;28;20204;-68
2022/10/20 07:11:26;;;;;;;3.63;2.40;;;4.00;99.90;;;;;;5094171;28;20200;-68
2022/10/20 07:13:53;;;;;;;2.77;2.20;;;4.00;99.90;;;;;;5087211;28;20204;-66
2022/10/20 07:16:22;;;;;;;2.40;2.17;;;4.00;99.90;;;;;;5094224;28;20539;-67
2022/10/20 07:18:50;;;;;;;2.40;2.20;;;4.00;99.90;;;;;;5092722;28;20207;-66
2022/10/20 07:21:19;;;;;;;2.43;2.23;;;4.00;99.90;;;;;;5087841;28;20530;-67
2022/10/20 07:23:48;;;;;;;3.93;2.20;;;4.10;99.90;;;;;;5092230;28;20224;-67
2022/10/20 07:26:17;;;;;;;3.40;2.60;;;4.10;99.90;;;;;;5093108;28;20776;-70
2022/10/20 07:28:46;;;;;;;4.53;2.37;;;4.00;99.90;;;;;;5094072;28;20210;-69
2022/10/20 07:31:15;;;;;;;4.43;2.77;;;4.10;99.90;;;;;;5093847;28;20204;-67
2022/10/20 07:33:42;;;;;;;3.03;2.40;;;4.10;99.90;;;;;;5094022;28;20204;-67
2022/10/20 07:36:14;;;;;;;3.93;2.50;;;4.20;99.90;;;;;;5093840;28;20204;-68
2022/10/20 07:38:42;;;;;;;2.80;2.47;;;4.10;99.90;;;;;;5089750;28;20214;-67
2022/10/20 07:41:10;;;;;;;3.20;2.70;;;4.10;99.90;;;;;;5093656;28;20204;-66
2022/10/20 07:43:37;;;;;;;4.23;2.77;;;4.20;99.90;;;;;;5093823;28;20685;-66
2022/10/20 07:46:05;;;;;;;3.50;2.70;;;4.20;99.90;;;;;;5093628;28;20204;-67
2022/10/20 07:48:32;;;;;;;2.73;2.33;;;4.20;99.90;;;;;;5091346;28;20205;-66
2022/10/20 07:51:25;;;;;;;3.13;2.50;;;4.20;99.90;;;;;;5093099;28;20572;-67
2022/10/20 07:53:55;;;;;;;5.10;2.70;;;4.20;99.90;;;;;;5093413;28;20496;-68
2022/10/20 07:56:22;;;;;;;3.27;2.77;;;4.20;99.90;;;;;;5093368;28;20204;-67
2022/10/20 07:58:49;;;;;;;3.93;2.30;;;4.20;99.90;;;;;;5091689;28;20222;-67
2022/10/20 08:01:16;;;;;;;3.03;2.50;;;4.30;99.90;;;;;;5093335;28;20204;-68
2022/10/20 08:03:43;;;;;;;2.77;2.47;;;4.30;99.90;;;;;;5092509;28;20307;-67
2022/10/20 08:06:10;;;;;;;5.03;2.40;;;4.40;99.90;;;;;;5091403;28;20226;-69
2022/10/20 08:08:37;;;;;;;2.90;2.33;;;4.40;99.90;;;;;;5088295;28;20196;-66
2022/10/20 08:11:05;;;;;;;3.20;2.73;;;4.40;99.90;;;;;;5083702;28;20209;-67
2022/10/20 08:13:32;;;;;;;4.87;2.77;;;4.40;99.90;;;;;;5089861;28;20196;-67
2022/10/20 08:15:59;;;;;;;3.10;2.60;;;4.40;99.90;;;;;;5092878;28;20207;-66
2022/10/20 08:18:26;;;;;;;2.80;2.50;;;4.40;99.90;;;;;;5092824;28;20200;-66
2022/10/20 08:20:53;;;;;;;2.60;2.40;;;4.40;99.90;;;;;;5079641;28;20213;-67
2022/10/20 08:23:20;;;;;;;3.33;2.50;;;4.40;99.90;;;;;;5071472;28;20227;-67
2022/10/20 08:25:46;;;;;;;2.70;2.50;;;4.40;99.90;;;;;;5071909;28;20200;-68
2022/10/20 08:28:15;;;;;;;4.43;2.57;;;4.40;99.90;;;;;;5072091;28;20201;-68
2022/10/20 08:30:41;;;;;;;3.10;2.80;;;4.40;99.90;;;;;;5083454;28;20226;-67
2022/10/20 08:33:08;;;;;;;2.80;2.50;;;4.40;99.90;;;;;;5092892;28;20204;-66
2022/10/20 08:35:35;;;;;;;3.57;2.80;;;4.40;99.90;;;;;;5082807;28;20201;-68
2022/10/20 08:38:04;;;;;;;3.07;2.57;;;4.40;99.90;;;;;;5081939;28;20229;-67
2022/10/20 08:40:32;;;;;;;4.10;3.23;;;4.40;99.90;;;;;;5072480;28;20295;-70
2022/10/20 08:42:59;;;;;;;2.73;2.53;;;4.40;99.90;;;;;;5072274;28;20227;-68
2022/10/20 08:45:28;;;;;;;3.20;2.50;;;4.50;99.90;;;;;;5072478;28;20582;-68
2022/10/20 08:47:57;;;;;;;3.57;2.67;;;4.40;99.90;;;;;;5080967;28;20202;-68
2022/10/20 08:50:27;;;;;;;5.00;3.17;;;4.50;99.90;;;;;;5092192;28;20208;-70
2022/10/20 08:52:56;;;;;;;3.03;2.73;;;4.40;99.90;;;;;;5092271;28;20204;-67
2022/10/20 08:55:28;;;;;;;4.73;3.30;;;4.50;99.90;;;;;;5090992;28;20200;-67
2022/10/20 08:58:00;;;;;;;4.57;3.20;;;4.40;99.90;;;;;;5086536;28;20203;-68
2022/10/20 09:00:30;;;;;;;5.13;3.60;;;4.50;99.90;;;;;;5091666;28;20206;-65
2022/10/20 09:03:01;;;;;;;4.27;3.20;;;4.50;99.90;;;;;;5091804;28;20235;-68
2022/10/20 09:05:31;;;;;;;6.70;3.13;;;4.50;99.90;;;;;;5092212;28;20192;-66
2022/10/20 09:07:58;;;;;;;5.73;3.47;;;4.50;99.90;;;;;;5092160;28;20210;-65
2022/10/20 09:10:31;;;;;;;4.87;3.20;;;4.60;99.90;;;;;;5090516;28;20212;-66
2022/10/20 09:12:59;;;;;;;5.93;3.20;;;4.60;99.90;;;;;;5083878;28;20193;-68
2022/10/20 09:15:28;;;;;;;3.63;3.20;;;4.60;99.90;;;;;;5081440;28;20196;-68
2022/10/20 09:18:00;;;;;;;6.13;3.43;;;4.60;99.90;;;;;;5091930;28;20212;-70
2022/10/20 09:20:33;;;;;;;6.67;3.50;;;4.60;99.90;;;;;;5090020;28;20202;-68
2022/10/20 09:23:00;;;;;;;3.77;3.17;;;4.70;99.90;;;;;;5091668;28;20204;-68
2022/10/20 09:25:27;;;;;;;3.57;3.10;;;4.70;99.90;;;;;;5092009;28;20658;-67
2022/10/20 09:27:55;;;;;;;4.57;3.27;;;4.70;99.90;;;;;;5071536;28;20689;-66
2022/10/20 09:30:32;;;;;;;3.57;3.00;;;4.80;99.90;;;;;;5071434;28;20204;-66
2022/10/20 09:33:02;;;;;;;3.83;2.93;;;4.70;99.90;;;;;;5071593;28;20185;-66
2022/10/20 09:35:32;;;;;;;5.00;3.10;;;4.80;99.90;;;;;;5071813;28;20274;-67
2022/10/20 09:38:02;;;;;;;4.50;3.17;;;4.70;99.90;;;;;;5071539;28;20229;-67
2022/10/20 09:40:30;;;;;;;5.93;3.23;;;4.80;99.90;;;;;;5091829;28;20192;-67
2022/10/20 09:43:01;;;;;;;3.40;3.10;;;4.80;99.90;;;;;;5091658;28;20701;-66
2022/10/20 09:45:30;;;;;;;3.93;3.13;;;4.90;99.90;;;;;;5091693;28;20279;-67
2022/10/20 09:48:05;;;;;;;5.00;3.33;;;4.90;99.90;;;;;;5090181;28;20657;-66
2022/10/20 09:50:35;;;;;;;4.07;2.70;;;4.90;99.90;;;;;;5081834;28;20201;-67
2022/10/20 09:53:06;;;;;;;3.73;3.13;;;4.90;99.90;;;;;;5075177;28;20185;-68
2022/10/20 09:55:36;;;;;;;3.77;3.17;;;4.90;99.90;;;;;;5078844;28;20230;-66
2022/10/20 09:58:05;;;;;;;8.30;3.83;;;5.00;99.90;;;;;;5095873;28;20196;-67
2022/10/20 10:00:34;;;;;;;5.77;3.80;;;5.00;99.90;;;;;;5095092;28;20200;-66
2022/10/20 10:03:22;;;;;;;6.13;3.80;;;5.00;99.90;;;;;;5095363;28;20239;-67
2022/10/20 10:05:50;;;;;;;4.10;2.80;;;5.10;99.90;;;;;;5095661;28;20564;-66
2022/10/20 10:08:18;;;;;;;3.20;2.90;;;5.10;99.90;;;;;;5095703;28;20203;-69
2022/10/20 10:10:57;;;;;;;3.30;2.90;;;5.10;99.90;;;;;;5092353;28;20211;-70
2022/10/20 10:13:26;;;;;;;4.17;3.00;;;5.10;99.90;;;;;;5095356;28;20230;-68
2022/10/20 10:16:01;;;;;;;4.27;3.10;;;5.10;99.90;;;;;;5095492;28;20654;-68
2022/10/20 10:18:30;;;;;;;5.10;3.20;;;5.20;99.90;;;;;;5082861;28;20204;-67
2022/10/20 10:20:59;;;;;;;3.63;2.80;;;5.20;99.90;;;;;;5084134;28;20207;-67
2022/10/20 10:23:27;;;;;;;3.43;2.83;;;5.30;99.90;;;;;;5095021;28;20246;-69
2022/10/20 10:25:55;;;;;;;4.50;2.80;;;5.20;99.90;;;;;;5095355;28;20199;-67
2022/10/20 10:28:33;;;;;;;3.53;2.77;;;5.20;99.90;;;;;;5095155;28;20215;-67
2022/10/20 10:31:11;;;;;;;5.53;3.50;;;5.30;99.90;;;;;;5076527;28;20200;-68
2022/10/20 10:33:39;;;;;;;3.27;2.80;;;5.30;99.90;;;;;;5079724;28;20221;-67
2022/10/20 10:36:11;;;;;;;4.73;3.83;;;5.40;99.90;;;;;;5086636;28;20204;-66
2022/10/20 10:38:38;;;;;;;4.23;3.20;;;5.40;99.90;;;;;;5063409;28;20232;-67
2022/10/20 10:41:19;;;;;;;4.73;2.87;;;5.50;99.90;;;;;;5055247;28;20566;-67
2022/10/20 10:43:57;;;;;;;5.30;3.20;;;5.50;99.90;;;;;;5054107;28;20213;-66
2022/10/20 10:46:28;;;;;;;5.13;3.10;;;5.50;99.90;;;;;;5054307;28;20193;-67
2022/10/20 10:49:08;;;;;;;7.30;4.17;;;5.60;99.90;;;;;;5065377;28;20273;-68
2022/10/20 10:51:49;;;;;;;4.07;3.17;;;5.70;99.90;;;;;;5054380;28;20193;-69
2022/10/20 10:54:28;;;;;;;8.43;2.90;;;5.70;99.90;;;;;;5053828;28;20189;-66
2022/10/20 10:56:59;;;;;;;3.50;2.60;;;5.80;99.90;;;;;;5089129;28;20200;-70
2022/10/20 10:59:31;;;;;;;5.90;2.57;;;5.80;99.90;;;;;;5094628;28;20264;-68
2022/10/20 11:02:23;;;;;;;3.10;2.47;;;5.90;99.90;;;;;;5091745;28;20196;-67
2022/10/20 11:05:19;;;;;;;3.87;2.73;;;6.00;99.90;;;;;;5094906;28;20688;-67
2022/10/20 11:07:51;;;;;;;4.13;2.53;;;6.10;99.90;;;;;;5091241;28;20211;-66
2022/10/20 11:10:24;;;;;;;3.50;2.60;;;6.10;99.90;;;;;;5094798;28;20618;-67
2022/10/20 11:13:01;;;;;;;5.17;2.80;;;6.10;99.90;;;;;;5094654;28;20538;-66
2022/10/20 11:15:46;;;;;;;3.00;2.70;;;6.20;99.90;;;;;;5094058;28;20195;-67
2022/10/20 11:18:18;;;;;;;2.93;2.70;;;6.30;99.90;;;;;;5079335;28;20196;-67
2022/10/20 11:20:52;;;;;;;4.47;2.80;;;6.20;99.90;;;;;;5065334;28;20204;-66
2022/10/20 11:23:41;;;;;;;3.60;2.50;;;6.30;99.90;;;;;;5073269;28;20639;-67
2022/10/20 11:26:17;;;;;;;4.83;2.67;;;6.30;99.90;;;;;;5085678;28;20593;-67
2022/10/20 11:28:46;;;;;;;3.17;2.40;;;6.40;99.90;;;;;;5078592;28;20245;-67
2022/10/20 11:31:22;;;;;;;2.80;2.53;;;6.30;99.90;;;;;;5074635;28;20629;-67
2022/10/20 11:33:54;;;;;;;2.43;2.20;;;6.40;99.90;;;;;;5067911;28;20666;-69
2022/10/20 16:12:11;;;;;;;4.40;3.30;;;6.20;99.90;;;;;;5118994;27;207689;-72
2022/10/20 16:14:38;;;;;;;4.17;2.90;;;6.60;99.90;;;;;;5077125;28;20234;-73
2022/10/20 16:17:05;;;;;;;4.73;3.20;;;6.70;99.90;;;;;;5089089;28;20203;-70
2022/10/20 16:19:31;;;;;;;5.13;3.07;;;6.70;99.90;;;;;;5088682;28;20204;-70
2022/10/20 16:21:58;;;;;;;4.23;2.93;;;6.80;99.90;;;;;;5088415;28;20208;-70
2022/10/20 16:24:25;;;;;;;5.23;3.40;;;6.80;99.90;;;;;;5088783;28;20208;-74
2022/10/20 16:26:52;;;;;;;3.33;2.67;;;6.80;99.90;;;;;;5087712;28;20201;-72
2022/10/20 16:29:20;;;;;;;5.03;2.90;;;6.80;99.90;;;;;;5087717;28;20254;-74
2022/10/20 16:31:48;;;;;;;3.07;2.60;;;6.80;99.90;;;;;;5087056;28;20580;-71
2022/10/20 16:34:15;;;;;;;5.17;2.80;;;6.80;99.90;;;;;;5088719;28;20200;-72
2022/10/20 16:36:41;;;;;;;3.30;2.80;;;6.80;99.90;;;;;;5088138;28;20226;-72
2022/10/20 16:39:10;;;;;;;6.67;2.90;;;6.80;99.90;;;;;;5089173;28;20204;-71
2022/10/20 16:41:37;;;;;;;5.37;3.10;;;6.80;99.90;;;;;;5089740;28;20212;-70
2022/10/20 16:44:06;;;;;;;5.07;3.13;;;6.90;99.90;;;;;;5088512;28;20618;-73
2022/10/20 16:46:34;;;;;;;4.43;3.10;;;6.90;99.90;;;;;;5093534;28;20204;-71
2022/10/20 16:49:01;;;;;;;4.03;3.30;;;6.90;99.90;;;;;;5088145;28;20212;-71
2022/10/20 16:51:27;;;;;;;4.53;3.20;;;6.90;99.90;;;;;;5088363;28;20394;-72
2022/10/20 16:53:54;;;;;;;4.90;3.17;;;6.90;99.90;;;;;;5088020;28;20204;-72
2022/10/20 16:56:22;;;;;;;4.67;3.00;;;6.90;99.90;;;;;;5088985;28;20302;-71
2022/10/20 16:58:49;;;;;;;4.07;2.83;;;6.80;99.90;;;;;;5088108;28;20683;-71
2022/10/20 17:01:17;;;;;;;3.60;3.10;;;6.80;99.90;;;;;;5088140;28;20206;-70
2022/10/20 17:03:48;;;;;;;8.30;4.10;;;6.80;99.90;;;;;;5087929;28;20207;-73
2022/10/20 17:06:17;;;;;;;8.47;4.30;;;6.80;99.90;;;;;;5088409;28;20200;-72
2022/10/20 17:08:44;;;;;;;5.60;3.57;;;6.80;99.90;;;;;;5087994;28;20548;-70
2022/10/20 17:11:13;;;;;;;5.23;3.50;;;6.80;99.90;;;;;;5085008;28;20240;-70
2022/10/20 17:13:40;;;;;;;5.77;3.57;;;6.80;99.90;;;;;;5074109;28;20263;-69
2022/10/20 17:16:10;;;;;;;5.33;3.40;;;6.80;99.90;;;;;;5074255;28;20200;-73
2022/10/20 17:18:37;;;;;;;5.83;3.67;;;6.70;99.90;;;;;;5072763;28;20205;-70
2022/10/20 17:21:06;;;;;;;4.53;3.67;;;6.80;99.90;;;;;;5073752;28;20236;-74
2022/10/20 17:23:34;;;;;;;4.30;3.40;;;6.70;99.90;;;;;;5074295;28;20223;-74
2022/10/20 17:26:02;;;;;;;6.97;3.70;;;6.70;99.90;;;;;;5074955;28;20205;-70
2022/10/20 17:28:30;;;;;;;4.37;3.53;;;6.70;99.90;;;;;;5074314;28;20219;-72
2022/10/20 17:30:57;;;;;;;7.00;3.73;;;6.70;99.90;;;;;;5074472;28;20666;-69
2022/10/20 17:33:25;;;;;;;4.03;3.23;;;6.70;99.90;;;;;;5073414;28;20695;-70
2022/10/20 17:35:53;;;;;;;6.70;4.20;;;6.70;99.90;;;;;;5073855;28;20205;-70
2022/10/20 17:38:22;;;;;;;6.47;4.00;;;6.70;99.90;;;;;;5074362;28;20673;-71
2022/10/20 17:40:49;;;;;;;5.00;3.73;;;6.70;99.90;;;;;;5073868;28;20220;-70
2022/10/20 17:43:16;;;;;;;6.00;3.73;;;6.70;99.90;;;;;;5071629;28;20227;-70
2022/10/20 17:45:43;;;;;;;6.67;4.47;;;6.70;99.90;;;;;;5074008;28;20215;-70